Terminal Aerodrome Forecast
Issued by NWS Mt. Holly, NJ

Home | Current Version | Previous Version | Text Only | Print | Product List | Glossary On
Versions: 1 2 3 4 5 6 7 8 9 10 11 12 13 14 15 16 17 18 19 20 21
000
FTUS41 KPHI 310800 AAA
TAFPHL
TAF AMD
KPHL 310831Z 3109/0112 17006KT P6SM SCT020 BKN035
      TEMPO 3109/3112 BKN015 OVC030
     FM311200 19006KT P6SM OVC015
     FM311500 23012KT P6SM SCT025 BKN035
     FM312100 20010KT 3SM SHRA SCT025 OVC050
     FM010200 21006KT P6SM VCSH SCT035 OVC080=

USA.gov is the U.S. government's official web portal to all federal, state and local government web resources and services.